createdAt,value
2018-03-31T00:00:43.970Z,100440.86
2018-03-31T00:03:11.115Z,100433.99
2018-03-31T00:05:38.277Z,100440.87
2018-03-31T00:08:05.460Z,100441.87
2018-03-31T00:10:32.713Z,100431.12
2018-03-31T00:12:59.830Z,100427.08
2018-03-31T00:15:27.078Z,100420.25
2018-03-31T00:17:54.255Z,100424.63
2018-03-31T00:20:21.442Z,100413.73
2018-03-31T00:22:48.589Z,100408.66
2018-03-31T00:25:15.758Z,100415.27
2018-03-31T00:27:42.912Z,100411.50
2018-03-31T00:30:10.060Z,100418.64
2018-03-31T00:32:37.214Z,100419.20
2018-03-31T00:35:04.452Z,100412.31
2018-03-31T00:37:31.598Z,100422.09
2018-03-31T00:39:58.749Z,100417.73
2018-03-31T00:42:25.884Z,100422.92
2018-03-31T00:44:53.119Z,100421.32
2018-03-31T00:47:20.281Z,100419.31
2018-03-31T00:49:47.433Z,100400.59
2018-03-31T00:52:14.542Z,100405.75
2018-03-31T00:54:41.700Z,100388.27
2018-03-31T00:57:08.886Z,100385.15
2018-03-31T00:59:36.041Z,100386.50
2018-03-31T01:02:03.174Z,100390.13
2018-03-31T01:04:30.354Z,100393.16
2018-03-31T01:06:57.507Z,100389.53
2018-03-31T01:09:24.714Z,100394.68
2018-03-31T01:11:51.837Z,100370.05
2018-03-31T01:14:18.995Z,100386.66
2018-03-31T01:16:46.172Z,100376.51
2018-03-31T01:19:13.378Z,100395.66
2018-03-31T01:21:40.539Z,100408.87
2018-03-31T01:24:07.822Z,100402.78
2018-03-31T01:26:34.967Z,100396.59
2018-03-31T01:29:02.097Z,100396.84
2018-03-31T01:31:29.259Z,100386.70
2018-03-31T01:33:56.397Z,100387.55
2018-03-31T01:36:23.564Z,100402.66
2018-03-31T01:38:50.741Z,100388.80
2018-03-31T01:41:17.894Z,100388.37
2018-03-31T01:43:45.140Z,100388.92
2018-03-31T01:46:12.301Z,100399.79
2018-03-31T01:48:39.453Z,100389.63
2018-03-31T01:51:06.626Z,100389.64
2018-03-31T01:53:33.796Z,100382.22
2018-03-31T01:56:01.035Z,100381.41
2018-03-31T01:58:28.206Z,100366.27
2018-03-31T02:00:55.345Z,100374.66
2018-03-31T02:03:22.494Z,100355.00
2018-03-31T02:05:49.640Z,100358.97
2018-03-31T02:08:16.780Z,100358.16
2018-03-31T02:10:45.546Z,100364.22
2018-03-31T02:13:12.737Z,100360.25
2018-03-31T02:15:40.044Z,100366.16
2018-03-31T02:18:07.240Z,100358.16
2018-03-31T02:20:34.590Z,100366.58
2018-03-31T02:23:01.750Z,100370.84
2018-03-31T02:25:28.929Z,100367.14
2018-03-31T02:27:56.069Z,100363.44
2018-03-31T02:30:23.248Z,100385.02
2018-03-31T02:32:50.389Z,100407.02
2018-03-31T02:35:17.608Z,100416.09
2018-03-31T02:37:44.766Z,100397.69
2018-03-31T02:40:11.922Z,100415.94
2018-03-31T02:42:39.077Z,100377.70
2018-03-31T02:45:06.242Z,100334.14
2018-03-31T02:47:33.425Z,100354.91
2018-03-31T02:50:00.559Z,100363.70
2018-03-31T02:52:27.715Z,100385.02
2018-03-31T02:54:54.885Z,100369.91
2018-03-31T02:57:22.047Z,100385.58
2018-03-31T02:59:49.192Z,100395.61
2018-03-31T03:02:16.381Z,100401.64
2018-03-31T03:04:43.532Z,100414.44
2018-03-31T03:07:10.706Z,100397.69
2018-03-31T03:09:37.840Z,100378.82
2018-03-31T03:12:05.014Z,100382.52
2018-03-31T03:14:32.176Z,100350.38
2018-03-31T03:16:59.378Z,100379.24
2018-03-31T03:19:26.537Z,100412.52
2018-03-31T03:21:53.732Z,100390.81
2018-03-31T03:24:20.913Z,100377.30
2018-03-31T03:26:48.077Z,100324.54
2018-03-31T03:29:15.232Z,100316.78
2018-03-31T03:31:42.415Z,100322.61
2018-03-31T03:34:09.558Z,100334.25
2018-03-31T03:36:36.721Z,100325.72
2018-03-31T03:39:04.049Z,100333.86
2018-03-31T03:41:31.262Z,100334.97
2018-03-31T03:43:58.400Z,100339.77
2018-03-31T03:46:25.621Z,100329.19
2018-03-31T03:48:52.776Z,100328.76
2018-03-31T03:51:19.953Z,100337.81
2018-03-31T03:53:47.134Z,100334.34
2018-03-31T03:56:14.291Z,100343.77
2018-03-31T03:58:41.429Z,100351.81
2018-03-31T04:01:08.611Z,100353.34
2018-03-31T04:03:35.745Z,100362.27
2018-03-31T04:06:02.957Z,100353.91
2018-03-31T04:08:30.163Z,100350.00
2018-03-31T04:10:57.312Z,100355.67
2018-03-31T04:13:24.514Z,100360.80
2018-03-31T04:15:51.705Z,100365.33
2018-03-31T04:18:18.874Z,100361.63
2018-03-31T04:20:46.061Z,100353.80
2018-03-31T04:23:13.217Z,100349.26
2018-03-31T04:25:40.466Z,100363.92
2018-03-31T04:28:07.722Z,100359.41
2018-03-31T04:30:34.864Z,100366.28
2018-03-31T04:33:02.026Z,100368.19
2018-03-31T04:35:29.214Z,100358.55
2018-03-31T04:37:56.356Z,100352.07
2018-03-31T04:40:23.511Z,100357.03
2018-03-31T04:42:50.728Z,100362.52
2018-03-31T04:45:17.849Z,100361.61
2018-03-31T04:47:45.053Z,100355.24
2018-03-31T04:50:12.229Z,100363.88
2018-03-31T04:52:39.440Z,100363.23
2018-03-31T04:55:06.573Z,100360.38
2018-03-31T04:57:33.746Z,100363.64
2018-03-31T05:00:00.910Z,100358.45
2018-03-31T05:02:28.137Z,100355.89
2018-03-31T05:04:55.312Z,100366.20
2018-03-31T05:07:37.930Z,100350.59
2018-03-31T05:10:05.110Z,100355.92
2018-03-31T05:12:32.297Z,100356.75
2018-03-31T05:14:59.432Z,100350.52
2018-03-31T05:17:26.615Z,100341.72
2018-03-31T05:19:53.778Z,100341.70
2018-03-31T05:22:21.079Z,100342.25
2018-03-31T05:24:48.259Z,100340.23
2018-03-31T05:27:15.431Z,100335.81
2018-03-31T05:29:42.583Z,100326.06
2018-03-31T05:32:09.763Z,100326.05
2018-03-31T05:34:36.909Z,100317.83
2018-03-31T05:37:04.143Z,100316.02
2018-03-31T05:39:31.337Z,100320.41
2018-03-31T05:41:58.495Z,100316.45
2018-03-31T05:44:25.698Z,100310.23
2018-03-31T05:46:52.869Z,100300.99
2018-03-31T05:49:20.030Z,100304.32
2018-03-31T05:51:47.211Z,100294.86
2018-03-31T05:54:14.387Z,100303.75
2018-03-31T05:56:41.556Z,100296.66
2018-03-31T05:59:08.714Z,100297.46
2018-03-31T06:01:36.000Z,100296.06
2018-03-31T06:04:03.237Z,100299.46
2018-03-31T06:06:30.709Z,100303.52
2018-03-31T06:08:57.926Z,100292.73
2018-03-31T06:11:25.053Z,100286.88
2018-03-31T06:13:52.320Z,100294.19
2018-03-31T06:16:19.473Z,100294.87
2018-03-31T06:18:46.607Z,100290.31
2018-03-31T06:21:13.749Z,100295.62
2018-03-31T06:23:40.961Z,100294.70
2018-03-31T06:26:08.129Z,100297.05
2018-03-31T06:28:35.332Z,100282.58
2018-03-31T06:31:02.503Z,100284.89
2018-03-31T06:33:29.751Z,100281.22
2018-03-31T06:35:56.909Z,100272.00
2018-03-31T06:38:24.095Z,100273.11
2018-03-31T06:40:51.287Z,100270.42
2018-03-31T06:43:18.418Z,100276.29
2018-03-31T06:45:45.609Z,100270.55
2018-03-31T06:48:12.758Z,100266.77
2018-03-31T06:50:39.946Z,100276.64
2018-03-31T06:53:07.167Z,100276.12
2018-03-31T06:55:34.348Z,100271.64
2018-03-31T06:58:01.526Z,100260.53
2018-03-31T07:00:28.751Z,100254.91
2018-03-31T07:02:55.897Z,100249.23
2018-03-31T07:05:23.122Z,100248.09
2018-03-31T07:07:50.258Z,100254.83
2018-03-31T07:10:17.543Z,100250.41
2018-03-31T07:12:44.715Z,100244.95
2018-03-31T07:15:12.059Z,100249.62
2018-03-31T07:17:40.839Z,100256.38
2018-03-31T07:20:08.098Z,100262.47
2018-03-31T07:22:35.373Z,100256.79
2018-03-31T07:25:02.725Z,100258.60
2018-03-31T07:27:29.942Z,100260.00
2018-03-31T07:30:00.358Z,100276.09
2018-03-31T07:32:27.683Z,100289.22
2018-03-31T07:34:55.945Z,100289.83
2018-03-31T07:37:23.146Z,100300.03
2018-03-31T07:39:50.360Z,100312.67
2018-03-31T07:42:17.710Z,100315.22
2018-03-31T07:44:46.321Z,100319.63
2018-03-31T07:47:14.523Z,100329.47
2018-03-31T07:49:43.652Z,100317.48
2018-03-31T07:52:12.257Z,100321.02
2018-03-31T07:54:42.239Z,100330.80
2018-03-31T07:59:46.983Z,100355.72
2018-03-31T08:02:14.199Z,100364.64
2018-03-31T08:04:41.395Z,100372.84
2018-03-31T08:07:09.473Z,100389.30
2018-03-31T08:09:36.749Z,100406.91
2018-03-31T08:12:05.486Z,100430.06
2018-03-31T08:14:33.843Z,100456.18
2018-03-31T08:17:01.213Z,100536.53
2018-03-31T08:19:30.052Z,100610.00
2018-03-31T08:21:57.245Z,100627.77
2018-03-31T08:24:24.475Z,100641.13
2018-03-31T08:26:51.648Z,100649.22
2018-03-31T08:29:18.817Z,100664.23
2018-03-31T08:31:46.022Z,100677.04
2018-03-31T08:34:13.189Z,100675.92
2018-03-31T08:36:40.342Z,100667.41
2018-03-31T08:39:07.557Z,100733.20
2018-03-31T08:41:34.753Z,100750.16
2018-03-31T08:44:01.950Z,100726.75
2018-03-31T08:46:29.105Z,100699.88
2018-03-31T08:48:56.285Z,100667.10
2018-03-31T08:51:23.486Z,100647.94
2018-03-31T08:53:50.690Z,100522.05
2018-03-31T08:56:17.844Z,100518.21
2018-03-31T08:58:45.158Z,100526.47
2018-03-31T09:01:12.334Z,100534.99
2018-03-31T09:03:39.477Z,100553.02
2018-03-31T09:06:06.692Z,100553.97
2018-03-31T09:08:33.843Z,100567.37
2018-03-31T09:11:01.096Z,100603.42
2018-03-31T09:13:28.325Z,100765.04
2018-03-31T09:15:55.535Z,100858.45
2018-03-31T09:18:22.711Z,100998.35
2018-03-31T09:20:49.895Z,101562.41
2018-03-31T09:23:17.060Z,100735.69
2018-03-31T09:25:44.225Z,100682.77
2018-03-31T09:28:11.418Z,100620.25
2018-03-31T09:30:38.610Z,100592.69
2018-03-31T09:33:05.754Z,100625.03
2018-03-31T09:35:32.929Z,100662.35
2018-03-31T09:38:00.138Z,100682.23
2018-03-31T09:40:27.325Z,100696.39
2018-03-31T09:42:54.482Z,100687.16
2018-03-31T09:45:21.678Z,100705.91
2018-03-31T09:47:48.866Z,100755.26
2018-03-31T09:50:16.055Z,100814.48
2018-03-31T09:52:43.270Z,101373.51
2018-03-31T09:55:10.442Z,101259.09
2018-03-31T09:57:37.610Z,101211.44
2018-03-31T10:00:04.758Z,101195.63
2018-03-31T10:02:31.880Z,101182.28
2018-03-31T10:04:59.094Z,101192.53
2018-03-31T10:07:26.244Z,101198.47
2018-03-31T10:09:53.397Z,101298.86
2018-03-31T10:12:20.618Z,101448.70
2018-03-31T10:14:47.794Z,101026.99
2018-03-31T10:17:14.970Z,102086.42
2018-03-31T10:19:42.206Z,100079.49
2018-03-31T10:22:09.371Z,100066.67
2018-03-31T10:24:36.560Z,100075.55
2018-03-31T10:27:04.146Z,100080.23
2018-03-31T10:29:31.288Z,100082.41
2018-03-31T10:31:58.482Z,100092.88
2018-03-31T10:34:25.619Z,100091.84
2018-03-31T10:36:52.784Z,100095.63
2018-03-31T10:39:19.966Z,101460.87
2018-03-31T10:41:47.126Z,101171.67
2018-03-31T10:44:14.302Z,101136.33
2018-03-31T10:46:41.453Z,101111.58
2018-03-31T10:49:08.606Z,101099.78
2018-03-31T10:51:35.815Z,101091.27
2018-03-31T10:54:02.926Z,101088.78
2018-03-31T10:56:30.090Z,101079.41
2018-03-31T10:58:57.283Z,101082.69
2018-03-31T11:01:24.451Z,101068.79
2018-03-31T11:03:51.574Z,101075.95
2018-03-31T11:06:18.739Z,101071.66
2018-03-31T11:08:45.970Z,101074.53
2018-03-31T11:11:13.125Z,101066.52
2018-03-31T11:13:40.287Z,101064.47
2018-03-31T11:16:07.474Z,101061.30
2018-03-31T11:18:34.695Z,101064.73
2018-03-31T11:21:01.868Z,101062.28
2018-03-31T11:23:29.046Z,101060.63
2018-03-31T11:25:56.204Z,101060.34
2018-03-31T11:28:23.359Z,101061.33
2018-03-31T11:30:50.526Z,101065.05
2018-03-31T11:33:17.680Z,101068.60
2018-03-31T11:35:44.844Z,101069.56
2018-03-31T11:38:24.396Z,101060.44
2018-03-31T11:40:51.551Z,101068.61
2018-03-31T11:49:37.540Z,101088.77
2018-03-31T11:52:07.991Z,101091.52
2018-03-31T11:54:35.098Z,101081.56
2018-03-31T11:57:02.238Z,101087.87
2018-03-31T12:02:45.720Z,101098.57
2018-03-31T12:05:18.871Z,101098.45
2018-03-31T12:07:48.896Z,101103.15
2018-03-31T12:10:19.397Z,101104.30
2018-03-31T12:12:49.126Z,101109.43
2018-03-31T12:15:26.220Z,101114.56
2018-03-31T12:17:53.410Z,101118.16
2018-03-31T12:20:20.548Z,101118.47
2018-03-31T12:22:50.315Z,101127.59
2018-03-31T12:31:01.708Z,101138.13
2018-03-31T12:33:34.295Z,101111.27
2018-03-31T12:36:05.675Z,101111.41
2018-03-31T12:41:31.485Z,101104.66
2018-03-31T12:46:39.598Z,101121.49
2018-03-31T12:49:08.259Z,101124.81
2018-03-31T12:51:36.085Z,101123.43
2018-03-31T12:54:03.214Z,101126.74
2018-03-31T12:56:30.365Z,101133.79
2018-03-31T12:59:03.899Z,101142.89
2018-03-31T13:01:31.548Z,101147.73
2018-03-31T13:03:58.662Z,101151.00
2018-03-31T13:06:25.782Z,101141.20
2018-03-31T13:08:52.925Z,101140.41
2018-03-31T13:11:20.047Z,101152.53
2018-03-31T13:13:47.223Z,101150.05
2018-03-31T13:16:14.400Z,101148.92
2018-03-31T13:18:41.561Z,101148.92
2018-03-31T13:21:08.680Z,101146.27
2018-03-31T13:23:35.842Z,101134.05
2018-03-31T13:26:02.963Z,101132.62
2018-03-31T13:28:30.134Z,101124.45
2018-03-31T13:30:57.258Z,101133.00
2018-03-31T13:33:24.417Z,101123.33
2018-03-31T13:35:51.585Z,101125.05
2018-03-31T13:38:18.719Z,101124.17
2018-03-31T13:40:45.817Z,101123.34
2018-03-31T13:43:13.030Z,101128.66
2018-03-31T13:45:40.169Z,101123.91
2018-03-31T13:48:07.387Z,101122.92
2018-03-31T13:50:34.528Z,101119.41
2018-03-31T13:53:01.723Z,101117.59
2018-03-31T13:55:28.839Z,101122.45
2018-03-31T13:57:56.017Z,101124.02
2018-03-31T14:00:23.164Z,101127.20
2018-03-31T14:02:50.362Z,101121.48
2018-03-31T14:05:17.481Z,101122.11
2018-03-31T14:07:44.655Z,101116.30
2018-03-31T14:10:11.792Z,101113.66
2018-03-31T14:12:39.022Z,101107.42
2018-03-31T14:15:06.151Z,101109.11
2018-03-31T14:17:33.311Z,101100.31
2018-03-31T14:20:00.680Z,101098.63
2018-03-31T14:22:27.823Z,101110.17
2018-03-31T14:24:55.000Z,101094.00
2018-03-31T14:27:22.181Z,101092.94
2018-03-31T14:29:49.309Z,101098.94
2018-03-31T14:32:16.509Z,101094.88
2018-03-31T14:34:43.638Z,101096.83
2018-03-31T14:37:10.782Z,101104.05
2018-03-31T14:39:37.961Z,101114.00
2018-03-31T14:42:05.074Z,101113.83
2018-03-31T14:44:32.249Z,101106.47
2018-03-31T14:46:59.427Z,101101.37
2018-03-31T14:49:26.605Z,101095.72
2018-03-31T14:51:53.746Z,101097.22
2018-03-31T14:54:20.918Z,101095.27
2018-03-31T14:56:48.048Z,101095.84
2018-03-31T14:59:15.206Z,101098.55
2018-03-31T15:01:42.342Z,101096.83
2018-03-31T15:04:09.519Z,101091.95
2018-03-31T15:06:36.642Z,101082.62
2018-03-31T15:09:03.801Z,101082.47
2018-03-31T15:11:30.950Z,101081.81
2018-03-31T15:13:58.104Z,101082.05
2018-03-31T15:16:25.208Z,101080.23
2018-03-31T15:18:52.368Z,101076.09
2018-03-31T15:21:19.492Z,101070.83
2018-03-31T15:23:46.660Z,101074.33
2018-03-31T15:26:13.916Z,101071.03
2018-03-31T15:28:41.168Z,101067.45
2018-03-31T15:31:08.245Z,101064.31
2018-03-31T15:33:35.410Z,101061.56
2018-03-31T15:36:02.579Z,101060.87
2018-03-31T15:38:29.720Z,101060.84
2018-03-31T15:40:56.846Z,101054.92
2018-03-31T15:43:33.245Z,101059.86
2018-03-31T15:46:01.127Z,101057.41
2018-03-31T15:48:37.898Z,101058.25
2018-03-31T15:51:05.760Z,101052.17
2018-03-31T15:53:32.899Z,101052.17
2018-03-31T15:56:00.034Z,101048.20
2018-03-31T15:58:27.195Z,101056.16
2018-03-31T16:00:54.335Z,101056.64
2018-03-31T16:03:21.519Z,101051.47
2018-03-31T16:05:48.634Z,101047.98
2018-03-31T16:08:15.799Z,101046.06
2018-03-31T16:10:43.035Z,101052.54
2018-03-31T16:13:10.142Z,101063.03
2018-03-31T16:15:37.301Z,101058.97
2018-03-31T16:18:04.442Z,101060.77
2018-03-31T16:20:31.635Z,101060.52
2018-03-31T16:22:58.731Z,101053.63
2018-03-31T16:25:25.875Z,101049.05
2018-03-31T16:27:52.981Z,101060.31
2018-03-31T16:30:20.120Z,101061.39
2018-03-31T16:32:47.287Z,101064.83
2018-03-31T16:35:16.689Z,101060.88
2018-03-31T16:37:43.864Z,101060.97
2018-03-31T16:40:11.834Z,101057.93
2018-03-31T16:42:38.982Z,101061.06
2018-03-31T16:45:06.189Z,101054.49
2018-03-31T16:47:33.990Z,101058.47
2018-03-31T16:50:01.200Z,101058.34
2018-03-31T16:52:28.345Z,101057.56
2018-03-31T16:54:55.518Z,101064.29
2018-03-31T16:57:22.663Z,101061.93
2018-03-31T16:59:49.831Z,101064.08
2018-03-31T17:02:16.993Z,101058.62
2018-03-31T17:04:44.156Z,101059.69
2018-03-31T17:07:11.274Z,101053.00
2018-03-31T17:09:38.437Z,101058.80
2018-03-31T17:12:05.828Z,101058.86
2018-03-31T17:14:33.007Z,101060.37
2018-03-31T17:17:00.133Z,101060.47
2018-03-31T17:19:27.303Z,101063.52
2018-03-31T17:21:54.416Z,101065.43
2018-03-31T17:24:21.560Z,101065.73
2018-03-31T17:26:48.676Z,101064.30
2018-03-31T17:29:15.877Z,101062.32
2018-03-31T17:31:43.019Z,101074.09
2018-03-31T17:34:17.143Z,101075.05
2018-03-31T17:36:54.895Z,101076.63
2018-03-31T17:39:28.064Z,101086.42
2018-03-31T17:41:55.431Z,101098.61
2018-03-31T17:44:22.602Z,101093.12
2018-03-31T17:46:49.922Z,101089.83
2018-03-31T17:49:22.511Z,101101.13
2018-03-31T17:52:00.275Z,101073.38
2018-03-31T17:54:28.662Z,100719.98
2018-03-31T17:56:55.755Z,100693.61
2018-03-31T17:59:22.945Z,100685.13
2018-03-31T18:01:50.081Z,100628.91
2018-03-31T18:04:17.276Z,100620.20
2018-03-31T18:06:44.488Z,100593.44
2018-03-31T18:09:11.647Z,100587.66
2018-03-31T18:11:43.234Z,100555.80
2018-03-31T18:14:21.876Z,100255.64
2018-03-31T18:17:01.487Z,100304.27
2018-03-31T18:19:47.296Z,100253.03
2018-03-31T18:22:27.569Z,100210.55
2018-03-31T18:25:05.656Z,100367.33
2018-03-31T18:27:38.096Z,100366.22
2018-03-31T18:30:12.450Z,100345.19
2018-03-31T18:32:40.067Z,100323.08
2018-03-31T18:35:07.226Z,100284.62
2018-03-31T18:37:34.355Z,100264.56
2018-03-31T18:40:01.493Z,100237.09
2018-03-31T18:42:28.633Z,100199.99
2018-03-31T18:44:55.802Z,100172.70
2018-03-31T18:47:22.949Z,100143.98
2018-03-31T18:49:50.126Z,100116.20
2018-03-31T18:52:17.251Z,100085.61
2018-03-31T18:54:44.365Z,100072.02
2018-03-31T18:57:11.582Z,100063.77
2018-03-31T18:59:38.835Z,100042.77
2018-03-31T19:02:06.033Z,100025.06
2018-03-31T19:04:33.199Z,99983.70
2018-03-31T19:07:00.422Z,99866.72
2018-03-31T19:09:27.559Z,99838.05
2018-03-31T19:11:54.760Z,99822.65
2018-03-31T19:14:21.909Z,99802.78
2018-03-31T19:16:54.655Z,99752.39
2018-03-31T19:19:21.801Z,99724.09
2018-03-31T19:21:48.961Z,99667.96
2018-03-31T19:24:16.107Z,99617.41
2018-03-31T19:26:43.360Z,99578.58
2018-03-31T19:29:10.543Z,99520.61
2018-03-31T19:31:37.740Z,99503.27
2018-03-31T19:34:04.893Z,99488.99
2018-03-31T19:36:32.210Z,99452.70
2018-03-31T19:38:59.381Z,99399.54
2018-03-31T19:41:26.570Z,99372.05
2018-03-31T19:43:53.761Z,99344.77
2018-03-31T19:46:20.921Z,99315.58
2018-03-31T19:48:48.069Z,99297.77
2018-03-31T19:51:15.289Z,99305.05
2018-03-31T19:53:43.504Z,99280.23
2018-03-31T19:56:10.718Z,99274.78
2018-03-31T19:58:37.862Z,99271.89
2018-03-31T20:01:05.040Z,99715.17
2018-03-31T20:03:32.188Z,99731.23
2018-03-31T20:05:59.410Z,99749.69
2018-03-31T20:08:26.602Z,99745.27
2018-03-31T20:10:53.770Z,99744.33
2018-03-31T20:13:20.858Z,99718.52
2018-03-31T20:15:48.066Z,99694.94
2018-03-31T20:18:15.171Z,99695.78
2018-03-31T20:20:42.393Z,99704.40
2018-03-31T20:23:09.522Z,99711.02
2018-03-31T20:25:36.740Z,99722.84
2018-03-31T20:28:03.950Z,99760.05
2018-03-31T20:30:31.088Z,99758.49
2018-03-31T20:32:58.296Z,99780.97
2018-03-31T20:35:25.425Z,99790.58
2018-03-31T20:37:52.623Z,99809.95
2018-03-31T20:40:19.796Z,99822.98
2018-03-31T20:42:46.981Z,99822.59
2018-03-31T20:45:14.147Z,99844.24
2018-03-31T20:47:41.338Z,99865.65
2018-03-31T20:50:08.424Z,99870.84
2018-03-31T20:52:35.621Z,99906.98
2018-03-31T20:55:02.751Z,99926.94
2018-03-31T20:57:29.954Z,99952.73
2018-03-31T20:59:57.094Z,99946.45
2018-03-31T21:02:24.290Z,99963.03
2018-03-31T21:04:51.445Z,99962.33
2018-03-31T21:07:18.674Z,99965.89
2018-03-31T21:09:45.850Z,99960.71
2018-03-31T21:12:13.078Z,99963.98
2018-03-31T21:14:40.215Z,99964.27
2018-03-31T21:17:07.424Z,99985.81
2018-03-31T21:19:34.597Z,99967.97
2018-03-31T21:22:01.769Z,99966.70
2018-03-31T21:24:28.964Z,99965.30
2018-03-31T21:26:56.107Z,99963.94
2018-03-31T21:29:23.253Z,99958.32
2018-03-31T21:31:50.425Z,99951.57
2018-03-31T21:37:08.065Z,99933.63
2018-03-31T21:39:35.241Z,99928.48
2018-03-31T21:42:02.458Z,99941.86
2018-03-31T21:44:29.567Z,99934.17
2018-03-31T21:46:56.785Z,99923.70
2018-03-31T21:49:23.975Z,99908.91
2018-03-31T21:51:51.199Z,99910.27
2018-03-31T21:54:18.325Z,99894.34
2018-03-31T21:56:45.541Z,99879.76
2018-03-31T21:59:12.671Z,99879.76
2018-03-31T22:01:39.873Z,99871.81
2018-03-31T22:04:07.025Z,99867.02
2018-03-31T22:06:34.214Z,99852.57
2018-03-31T22:09:01.373Z,99830.30
2018-03-31T22:11:28.540Z,99835.13
2018-03-31T22:14:01.273Z,99795.98
2018-03-31T22:16:28.394Z,99763.20
2018-03-31T22:18:55.602Z,99759.54
2018-03-31T22:21:22.741Z,99734.97
2018-03-31T22:23:49.932Z,99703.81
2018-03-31T22:26:17.145Z,99685.73
2018-03-31T22:28:44.360Z,99667.03
2018-03-31T22:31:11.525Z,99666.30
2018-03-31T22:33:38.741Z,99636.91
2018-03-31T22:36:05.867Z,99609.88
2018-03-31T22:38:33.003Z,99603.92
2018-03-31T22:41:00.078Z,99611.86
2018-03-31T22:43:27.246Z,99616.09
2018-03-31T22:45:54.343Z,99618.25
2018-03-31T22:48:21.466Z,99611.14
2018-03-31T22:50:48.592Z,99640.50
2018-03-31T22:53:15.730Z,99624.46
2018-03-31T22:55:42.843Z,99626.14
2018-03-31T22:58:15.875Z,99641.95
2018-03-31T23:00:43.281Z,99641.84
2018-03-31T23:03:10.435Z,99655.77
2018-03-31T23:05:37.526Z,99656.98
2018-03-31T23:08:04.702Z,99663.84
2018-03-31T23:10:31.823Z,99669.95
2018-03-31T23:12:58.997Z,99681.31
2018-03-31T23:15:26.126Z,99700.41
2018-03-31T23:17:53.286Z,99711.39
2018-03-31T23:20:20.427Z,99724.20
2018-03-31T23:22:47.612Z,99746.05
2018-03-31T23:25:14.733Z,99758.75
2018-03-31T23:27:41.872Z,99761.78
2018-03-31T23:30:09.037Z,99767.56
2018-03-31T23:32:36.178Z,99778.55
2018-03-31T23:35:03.278Z,99790.49
2018-03-31T23:37:30.414Z,99805.32
2018-03-31T23:39:57.535Z,99808.78
2018-03-31T23:42:24.657Z,99837.47
2018-03-31T23:44:51.782Z,99868.47
2018-03-31T23:47:18.911Z,99855.08
2018-03-31T23:49:46.048Z,99874.28
2018-03-31T23:52:13.137Z,99880.28
2018-03-31T23:54:40.288Z,99898.85
2018-03-31T23:57:07.373Z,99919.04
2018-03-31T23:59:34.534Z,99934.86
